Terminal Aerodrome Forecast
Issued by NWS Jacksonville, FL

Home | Current Version | Previous Version | Text Only | Print | Product List | Glossary On
Versions: 1 2 3 4 5 6 7 8 9 10 11 12 13 14 15 16 17 18 19
222
FTUS42 KJAX 270115 AAB
TAFJAX
TAF AMD
KJAX 270115Z 2701/2724 VRB06KT P6SM VCTS BKN040CB BKN250
     FM270200 20003KT P6SM FEW040 SCT250
     FM271400 23005KT P6SM SCT030
     FM271900 17009KT P6SM SCT050=

USA.gov is the U.S. government's official web portal to all federal, state and local government web resources and services.